Time;durP1;ratioP1;P1;durP2;ratioP2;P2;SDS_P1;SDS_P2;PMS_P1;PMS_P2;Temp;Humidity;BMP_temperature;BMP_pressure;BME280_temperature;BME280_humidity;BME280_pressure;Samples;Min_cycle;Max_cycle;Signal;HPM_P1;HPM_P2
2021/09/03 00:02:03;;;;;;;21.80;8.13;;;;;;;;;;4941005;28;20126;-79
2021/09/03 00:04:28;;;;;;;19.80;7.35;;;;;;;;;;4948466;28;20028;-78
2021/09/03 00:06:54;;;;;;;23.10;8.10;;;;;;;;;;4939626;28;20028;-78
2021/09/03 00:09:19;;;;;;;19.92;7.93;;;;;;;;;;4945828;28;20043;-78
2021/09/03 00:11:45;;;;;;;15.98;8.13;;;;;;;;;;4945208;28;20030;-78
2021/09/03 00:14:11;;;;;;;21.80;8.05;;;;;;;;;;4950901;28;20444;-78
2021/09/03 00:16:37;;;;;;;23.10;8.68;;;;;;;;;;4930897;28;20036;-78
2021/09/03 00:19:05;;;;;;;21.42;8.13;;;;;;;;;;4944285;28;20035;-78
2021/09/03 00:21:31;;;;;;;20.40;7.70;;;;;;;;;;4935061;28;20051;-77
2021/09/03 00:23:57;;;;;;;20.65;7.88;;;;;;;;;;4938802;28;20527;-78
2021/09/03 00:26:22;;;;;;;18.15;6.97;;;;;;;;;;4944210;28;20031;-79
2021/09/03 00:28:48;;;;;;;12.73;7.07;;;;;;;;;;4921077;28;20043;-78
2021/09/03 00:31:13;;;;;;;18.55;7.95;;;;;;;;;;4945038;28;20063;-78
2021/09/03 00:33:38;;;;;;;15.32;7.78;;;;;;;;;;4931796;28;20089;-78
2021/09/03 00:36:04;;;;;;;19.73;7.93;;;;;;;;;;4943017;28;20054;-78
2021/09/03 00:38:30;;;;;;;25.33;7.97;;;;;;;;;;4938052;28;20444;-77
2021/09/03 00:40:55;;;;;;;15.73;7.70;;;;;;;;;;4953359;28;20035;-77
2021/09/03 00:43:20;;;;;;;19.80;7.78;;;;;;;;;;4913903;28;20483;-78
2021/09/03 00:45:46;;;;;;;23.52;7.95;;;;;;;;;;4930674;29;20036;-77
2021/09/03 00:48:11;;;;;;;19.55;8.10;;;;;;;;;;4940448;28;20035;-78
2021/09/03 00:50:38;;;;;;;16.02;7.38;;;;;;;;;;4934649;28;20040;-78
2021/09/03 00:53:04;;;;;;;14.40;7.00;;;;;;;;;;4965638;28;20321;-78
2021/09/03 00:55:30;;;;;;;16.48;7.20;;;;;;;;;;4939822;28;20442;-78
2021/09/03 00:57:55;;;;;;;17.48;7.50;;;;;;;;;;4942738;28;20042;-77
2021/09/03 01:00:21;;;;;;;20.35;8.10;;;;;;;;;;4938152;28;20497;-77
2021/09/03 01:02:46;;;;;;;22.60;7.82;;;;;;;;;;4943989;28;20624;-77
2021/09/03 01:05:12;;;;;;;18.85;7.95;;;;;;;;;;4944301;28;20066;-78
2021/09/03 01:07:38;;;;;;;23.33;8.15;;;;;;;;;;4938731;28;20440;-78
2021/09/03 01:10:05;;;;;;;24.90;7.88;;;;;;;;;;4951689;28;20027;-77
2021/09/03 01:12:30;;;;;;;16.60;7.47;;;;;;;;;;4945269;28;20059;-77
2021/09/03 01:14:56;;;;;;;18.75;7.35;;;;;;;;;;4941807;28;20070;-77
2021/09/03 01:17:21;;;;;;;19.75;8.43;;;;;;;;;;4945558;28;20051;-77
2021/09/03 01:19:50;;;;;;;17.35;8.23;;;;;;;;;;4955990;28;20071;-77
2021/09/03 01:22:19;;;;;;;20.83;8.00;;;;;;;;;;4944890;28;20118;-77
2021/09/03 01:24:45;;;;;;;26.52;9.20;;;;;;;;;;4937559;28;20252;-78
2021/09/03 01:27:10;;;;;;;21.58;9.10;;;;;;;;;;4943953;28;20046;-78
2021/09/03 01:29:36;;;;;;;25.20;8.07;;;;;;;;;;4948991;28;20043;-78
2021/09/03 01:32:01;;;;;;;26.05;8.52;;;;;;;;;;4940694;28;20655;-77
2021/09/03 01:34:27;;;;;;;21.83;9.30;;;;;;;;;;4932101;28;20035;-77
2021/09/03 01:36:52;;;;;;;22.00;8.85;;;;;;;;;;4943619;28;20412;-78
2021/09/03 01:39:18;;;;;;;24.83;8.57;;;;;;;;;;4949778;28;20041;-77
2021/09/03 01:41:43;;;;;;;28.25;8.77;;;;;;;;;;4939516;28;20040;-77
2021/09/03 01:44:10;;;;;;;24.35;9.73;;;;;;;;;;4931813;28;20039;-77
2021/09/03 01:46:36;;;;;;;24.20;9.13;;;;;;;;;;4956511;28;20035;-77
2021/09/03 01:49:02;;;;;;;18.98;8.13;;;;;;;;;;4948138;28;20085;-77
2021/09/03 01:51:27;;;;;;;26.08;8.50;;;;;;;;;;4946467;28;20171;-77
2021/09/03 01:53:52;;;;;;;22.48;8.73;;;;;;;;;;4932015;28;20036;-76
2021/09/03 01:56:18;;;;;;;20.50;8.65;;;;;;;;;;4952173;28;20550;-76
2021/09/03 01:58:43;;;;;;;27.20;9.35;;;;;;;;;;4946605;28;20469;-77
2021/09/03 02:01:09;;;;;;;24.10;8.73;;;;;;;;;;4941765;28;20055;-77
2021/09/03 02:03:34;;;;;;;26.55;9.27;;;;;;;;;;4957927;28;20027;-76
2021/09/03 02:06:00;;;;;;;23.65;9.63;;;;;;;;;;4950961;28;20066;-76
2021/09/03 02:08:25;;;;;;;27.20;9.50;;;;;;;;;;4931822;29;20581;-77
2021/09/03 02:10:51;;;;;;;36.30;10.00;;;;;;;;;;4942187;28;20046;-77
2021/09/03 02:13:17;;;;;;;30.35;10.43;;;;;;;;;;4942345;28;20035;-76
2021/09/03 02:15:42;;;;;;;26.52;9.13;;;;;;;;;;4944169;28;20042;-77
2021/09/03 02:18:08;;;;;;;29.23;9.95;;;;;;;;;;4951394;28;20049;-77
2021/09/03 02:20:33;;;;;;;27.35;9.75;;;;;;;;;;4952686;28;20094;-76
2021/09/03 02:22:59;;;;;;;23.90;8.25;;;;;;;;;;4951848;28;20615;-77
2021/09/03 02:25:24;;;;;;;29.85;9.65;;;;;;;;;;4920427;28;20126;-79
2021/09/03 02:27:50;;;;;;;25.08;9.43;;;;;;;;;;4949195;28;20043;-79
2021/09/03 02:30:15;;;;;;;28.90;9.55;;;;;;;;;;4950207;28;20042;-78
2021/09/03 02:32:41;;;;;;;31.08;8.35;;;;;;;;;;4931196;28;20035;-79
2021/09/03 02:35:07;;;;;;;20.25;8.88;;;;;;;;;;4930328;28;20514;-79
2021/09/03 02:37:33;;;;;;;25.45;8.88;;;;;;;;;;4951205;28;20031;-78
2021/09/03 02:39:58;;;;;;;28.92;9.23;;;;;;;;;;4945662;28;20546;-77
2021/09/03 02:42:24;;;;;;;23.10;8.70;;;;;;;;;;4939834;28;20039;-77
2021/09/03 02:44:49;;;;;;;21.80;8.77;;;;;;;;;;4919607;28;20026;-78
2021/09/03 02:47:15;;;;;;;25.15;10.43;;;;;;;;;;4945709;28;20061;-78
2021/09/03 02:49:40;;;;;;;30.77;9.38;;;;;;;;;;4924667;29;20063;-77
2021/09/03 02:52:06;;;;;;;23.63;9.88;;;;;;;;;;4962638;28;20122;-78
2021/09/03 02:54:32;;;;;;;28.73;10.07;;;;;;;;;;4933140;29;20023;-78
2021/09/03 02:56:57;;;;;;;25.65;10.90;;;;;;;;;;4945909;28;20035;-78
2021/09/03 02:59:23;;;;;;;27.85;9.90;;;;;;;;;;4932745;29;20034;-77
2021/09/03 03:01:48;;;;;;;26.60;9.02;;;;;;;;;;4947069;28;20175;-77
2021/09/03 03:04:14;;;;;;;29.95;10.68;;;;;;;;;;4942341;28;20097;-78
2021/09/03 03:06:39;;;;;;;30.38;10.13;;;;;;;;;;4952586;28;20031;-78
2021/09/03 03:09:05;;;;;;;26.30;9.60;;;;;;;;;;4946971;28;20456;-77
2021/09/03 03:11:30;;;;;;;23.52;9.20;;;;;;;;;;4949111;28;20015;-77
2021/09/03 03:14:11;;;;;;;28.45;9.23;;;;;;;;;;4947530;28;20252;-77
2021/09/03 03:16:36;;;;;;;30.02;8.90;;;;;;;;;;4946743;28;20150;-78
2021/09/03 03:19:02;;;;;;;25.65;9.38;;;;;;;;;;4936439;28;20126;-77
2021/09/03 03:21:27;;;;;;;26.23;9.95;;;;;;;;;;4941222;28;20133;-78
2021/09/03 03:23:53;;;;;;;28.65;9.00;;;;;;;;;;4929887;29;20046;-77
2021/09/03 03:26:18;;;;;;;30.40;10.32;;;;;;;;;;4948599;28;20546;-78
2021/09/03 03:28:44;;;;;;;28.10;10.45;;;;;;;;;;4943206;28;20027;-77
2021/09/03 03:31:09;;;;;;;30.70;9.40;;;;;;;;;;4946312;28;20532;-77
2021/09/03 03:33:35;;;;;;;22.38;10.40;;;;;;;;;;4953975;28;20042;-77
2021/09/03 03:36:00;;;;;;;31.50;10.20;;;;;;;;;;4933364;28;20071;-77
2021/09/03 03:38:26;;;;;;;31.30;11.48;;;;;;;;;;4949390;28;20033;-78
2021/09/03 03:40:51;;;;;;;26.90;10.38;;;;;;;;;;4945604;28;20027;-77
2021/09/03 03:43:17;;;;;;;27.63;10.45;;;;;;;;;;4930060;28;20042;-77
2021/09/03 03:45:42;;;;;;;33.65;10.00;;;;;;;;;;4941268;28;20027;-77
2021/09/03 03:48:08;;;;;;;27.45;10.18;;;;;;;;;;4940274;28;20024;-77
2021/09/03 03:50:34;;;;;;;24.58;9.35;;;;;;;;;;4939204;28;20146;-77
2021/09/03 03:53:00;;;;;;;31.10;10.13;;;;;;;;;;4951952;28;20035;-78
2021/09/03 03:55:25;;;;;;;27.63;10.27;;;;;;;;;;4934594;29;20562;-77
2021/09/03 03:57:50;;;;;;;26.63;10.77;;;;;;;;;;4953308;28;20042;-76
2021/09/03 04:00:16;;;;;;;27.38;10.10;;;;;;;;;;4930920;29;20613;-77
2021/09/03 04:02:42;;;;;;;31.50;11.10;;;;;;;;;;4942442;28;20074;-77
2021/09/03 04:05:08;;;;;;;33.15;11.85;;;;;;;;;;4948695;28;20035;-77
2021/09/03 04:07:33;;;;;;;27.77;10.23;;;;;;;;;;4932731;29;20549;-78
2021/09/03 04:09:59;;;;;;;31.05;10.65;;;;;;;;;;4948401;28;20044;-78
2021/09/03 04:12:24;;;;;;;33.10;10.82;;;;;;;;;;4947258;28;20571;-78
2021/09/03 04:14:50;;;;;;;34.10;10.98;;;;;;;;;;4950254;28;20027;-78
2021/09/03 04:17:15;;;;;;;29.48;10.98;;;;;;;;;;4942670;28;20438;-78
2021/09/03 04:19:41;;;;;;;28.48;11.30;;;;;;;;;;4926243;28;20027;-78
2021/09/03 04:22:06;;;;;;;37.95;11.57;;;;;;;;;;4942123;28;20066;-77
2021/09/03 04:24:32;;;;;;;40.08;12.18;;;;;;;;;;4931203;29;20063;-78
2021/09/03 04:26:59;;;;;;;29.05;12.05;;;;;;;;;;4943266;28;20058;-78
2021/09/03 04:29:25;;;;;;;38.25;12.48;;;;;;;;;;4927435;29;20656;-77
2021/09/03 04:31:50;;;;;;;34.35;12.20;;;;;;;;;;4954324;28;20171;-78
2021/09/03 04:34:16;;;;;;;31.58;11.98;;;;;;;;;;4943370;28;20090;-78
2021/09/03 04:36:41;;;;;;;28.45;11.98;;;;;;;;;;4948919;28;20481;-77
2021/09/03 04:39:07;;;;;;;27.00;10.93;;;;;;;;;;4944548;28;20031;-77
2021/09/03 04:41:32;;;;;;;34.13;11.65;;;;;;;;;;4944627;28;20055;-78
2021/09/03 04:43:58;;;;;;;32.83;11.63;;;;;;;;;;4949165;28;20146;-78
2021/09/03 04:46:23;;;;;;;32.05;11.65;;;;;;;;;;4914324;29;20460;-78
2021/09/03 04:48:49;;;;;;;30.05;11.65;;;;;;;;;;4936148;28;20044;-78
2021/09/03 04:51:14;;;;;;;30.65;11.35;;;;;;;;;;4926065;29;20118;-78
2021/09/03 04:53:40;;;;;;;31.05;11.75;;;;;;;;;;4919331;28;20032;-78
2021/09/03 04:56:06;;;;;;;35.17;11.35;;;;;;;;;;4940380;28;20034;-77
2021/09/03 04:58:31;;;;;;;30.58;12.13;;;;;;;;;;4926186;28;20027;-76
2021/09/03 05:00:57;;;;;;;36.92;12.23;;;;;;;;;;4941722;28;20038;-76
2021/09/03 05:03:22;;;;;;;34.08;11.63;;;;;;;;;;4915366;29;20035;-76
2021/09/03 05:05:48;;;;;;;36.45;12.55;;;;;;;;;;4948325;28;20070;-77
2021/09/03 05:08:13;;;;;;;35.33;11.65;;;;;;;;;;4921058;29;20130;-77
2021/09/03 05:10:39;;;;;;;36.40;11.95;;;;;;;;;;4930668;29;20031;-78
2021/09/03 05:13:04;;;;;;;34.88;12.30;;;;;;;;;;4941766;28;20038;-77
2021/09/03 05:15:37;;;;;;;38.13;11.70;;;;;;;;;;4941806;28;20029;-77
2021/09/03 05:18:03;;;;;;;40.00;13.25;;;;;;;;;;4942240;28;20373;-76
2021/09/03 05:20:29;;;;;;;33.50;11.48;;;;;;;;;;4936137;28;20097;-78
2021/09/03 05:22:55;;;;;;;29.77;10.85;;;;;;;;;;4943338;28;20047;-76
2021/09/03 05:25:20;;;;;;;37.25;11.18;;;;;;;;;;4943713;28;20095;-77
2021/09/03 05:27:45;;;;;;;33.45;11.30;;;;;;;;;;4929953;28;20300;-77
2021/09/03 05:30:11;;;;;;;35.60;12.45;;;;;;;;;;4921498;29;20028;-77
2021/09/03 05:32:37;;;;;;;36.05;11.05;;;;;;;;;;4935619;28;20781;-77
2021/09/03 05:35:07;;;;;;;37.65;11.63;;;;;;;;;;4942076;28;20101;-77
2021/09/03 05:37:32;;;;;;;29.52;11.48;;;;;;;;;;4947616;28;20043;-77
2021/09/03 05:40:01;;;;;;;40.90;13.40;;;;;;;;;;4934781;28;20027;-77
2021/09/03 05:42:28;;;;;;;35.38;11.23;;;;;;;;;;4944980;28;20603;-77
2021/09/03 05:44:54;;;;;;;34.97;12.52;;;;;;;;;;4948774;28;20038;-77
2021/09/03 05:47:19;;;;;;;33.50;10.68;;;;;;;;;;4948645;28;20023;-77
2021/09/03 05:49:45;;;;;;;33.60;11.50;;;;;;;;;;4949590;28;20046;-78
2021/09/03 05:52:10;;;;;;;38.75;12.15;;;;;;;;;;4947266;28;20038;-77
2021/09/03 05:54:36;;;;;;;31.42;11.27;;;;;;;;;;4947210;28;20035;-77
2021/09/03 05:57:04;;;;;;;35.40;11.43;;;;;;;;;;4959307;28;20054;-77
2021/09/03 05:59:29;;;;;;;34.63;12.20;;;;;;;;;;4916506;28;20601;-77
2021/09/03 06:01:55;;;;;;;35.67;11.52;;;;;;;;;;4924067;29;20043;-77
2021/09/03 06:04:20;;;;;;;35.45;11.75;;;;;;;;;;4944210;28;20039;-77
2021/09/03 06:06:45;;;;;;;45.13;11.60;;;;;;;;;;4946833;28;20046;-77
2021/09/03 06:09:11;;;;;;;56.50;13.07;;;;;;;;;;4951823;28;20408;-77
2021/09/03 06:11:36;;;;;;;65.05;13.68;;;;;;;;;;4949599;28;20032;-77
2021/09/03 06:14:02;;;;;;;41.95;11.95;;;;;;;;;;4945123;28;20034;-77
2021/09/03 06:16:27;;;;;;;51.42;13.23;;;;;;;;;;4942971;28;20046;-76
2021/09/03 06:18:53;;;;;;;49.30;12.75;;;;;;;;;;4954008;28;20768;-77
2021/09/03 06:21:18;;;;;;;43.88;12.10;;;;;;;;;;4934472;29;20057;-77
2021/09/03 06:23:44;;;;;;;55.92;13.15;;;;;;;;;;4935605;29;20050;-77
2021/09/03 06:26:10;;;;;;;41.80;11.40;;;;;;;;;;4950415;28;20051;-76
2021/09/03 06:28:36;;;;;;;28.73;11.40;;;;;;;;;;4948063;28;20039;-76
2021/09/03 06:31:01;;;;;;;64.30;14.32;;;;;;;;;;4947304;28;20596;-76
2021/09/03 06:33:27;;;;;;;47.60;13.50;;;;;;;;;;4944638;28;20047;-77
2021/09/03 06:35:52;;;;;;;68.47;14.80;;;;;;;;;;4949074;28;20172;-76
2021/09/03 06:38:18;;;;;;;45.97;13.18;;;;;;;;;;4943454;28;20109;-77
2021/09/03 06:40:44;;;;;;;60.13;12.63;;;;;;;;;;4931450;28;20047;-77
2021/09/03 06:43:09;;;;;;;38.75;13.10;;;;;;;;;;4930424;28;20063;-76
2021/09/03 06:45:35;;;;;;;53.58;14.98;;;;;;;;;;4945860;28;20037;-77
2021/09/03 06:48:00;;;;;;;59.00;14.93;;;;;;;;;;4935742;28;20702;-76
2021/09/03 06:50:26;;;;;;;66.75;16.83;;;;;;;;;;4949067;28;20043;-77
2021/09/03 06:52:51;;;;;;;48.22;15.25;;;;;;;;;;4943588;28;20437;-77
2021/09/03 06:55:17;;;;;;;47.85;13.88;;;;;;;;;;4945930;28;20027;-77
2021/09/03 06:57:42;;;;;;;37.40;12.82;;;;;;;;;;4955334;28;20035;-78
2021/09/03 07:00:09;;;;;;;58.63;15.70;;;;;;;;;;4952946;28;20027;-77
2021/09/03 07:02:35;;;;;;;48.80;12.98;;;;;;;;;;4945561;28;20035;-77
2021/09/03 07:05:00;;;;;;;65.05;14.73;;;;;;;;;;4949862;28;20480;-77
2021/09/03 07:07:26;;;;;;;42.85;13.70;;;;;;;;;;4924299;29;20101;-77
2021/09/03 07:09:55;;;;;;;54.63;15.23;;;;;;;;;;4942163;28;20027;-79
2021/09/03 07:12:22;;;;;;;56.50;13.60;;;;;;;;;;4941136;28;20070;-77
2021/09/03 07:14:47;;;;;;;58.95;13.45;;;;;;;;;;4946660;28;20023;-79
2021/09/03 07:17:13;;;;;;;50.45;14.50;;;;;;;;;;4928979;28;20041;-79
2021/09/03 07:19:39;;;;;;;46.90;14.55;;;;;;;;;;4939595;28;20027;-78
2021/09/03 07:22:05;;;;;;;54.85;16.52;;;;;;;;;;4938984;28;20043;-75
2021/09/03 07:24:30;;;;;;;54.80;14.82;;;;;;;;;;4945295;28;20035;-78
2021/09/03 07:26:56;;;;;;;44.33;13.15;;;;;;;;;;4931402;28;20050;-78
2021/09/03 07:29:22;;;;;;;57.30;14.20;;;;;;;;;;4942686;28;21051;-78
2021/09/03 07:31:47;;;;;;;40.25;14.18;;;;;;;;;;4939975;28;20027;-78
2021/09/03 07:34:13;;;;;;;50.92;14.70;;;;;;;;;;4944725;28;20031;-78
2021/09/03 07:36:39;;;;;;;54.33;14.27;;;;;;;;;;4939282;29;20117;-78
2021/09/03 07:39:04;;;;;;;50.28;14.40;;;;;;;;;;4950812;28;20059;-78
2021/09/03 07:41:30;;;;;;;41.33;14.30;;;;;;;;;;4945370;28;20031;-78
2021/09/03 07:43:55;;;;;;;47.05;13.18;;;;;;;;;;4953047;28;20034;-78
2021/09/03 07:46:22;;;;;;;44.63;13.63;;;;;;;;;;4948275;28;20590;-78
2021/09/03 07:48:47;;;;;;;52.47;14.20;;;;;;;;;;4955921;28;20031;-78
2021/09/03 07:51:13;;;;;;;48.40;14.85;;;;;;;;;;4927843;28;20049;-78
2021/09/03 07:53:38;;;;;;;57.92;14.65;;;;;;;;;;4949108;28;20030;-78
2021/09/03 07:56:04;;;;;;;39.45;13.18;;;;;;;;;;4950333;28;20392;-78
2021/09/03 07:58:30;;;;;;;41.50;13.68;;;;;;;;;;4948284;28;20031;-78
2021/09/03 08:00:56;;;;;;;48.45;13.27;;;;;;;;;;4948126;28;20082;-79
2021/09/03 08:03:21;;;;;;;37.22;13.13;;;;;;;;;;4949435;28;20035;-78
2021/09/03 08:05:47;;;;;;;37.75;12.38;;;;;;;;;;4955072;28;20038;-78
2021/09/03 08:08:13;;;;;;;42.85;13.18;;;;;;;;;;4953309;28;20400;-78
2021/09/03 08:10:38;;;;;;;31.63;12.02;;;;;;;;;;4952269;28;20027;-79
2021/09/03 08:13:05;;;;;;;43.80;12.48;;;;;;;;;;4958668;28;20027;-79
2021/09/03 08:15:31;;;;;;;34.08;11.90;;;;;;;;;;4931707;28;20035;-78
2021/09/03 08:17:57;;;;;;;27.23;11.48;;;;;;;;;;4954152;28;20114;-79
2021/09/03 08:20:23;;;;;;;36.10;11.05;;;;;;;;;;4951863;28;20110;-78
2021/09/03 08:22:51;;;;;;;35.05;11.40;;;;;;;;;;4929271;29;20035;-79
2021/09/03 08:25:18;;;;;;;26.35;9.10;;;;;;;;;;4947807;28;20074;-79
2021/09/03 08:27:43;;;;;;;37.95;10.10;;;;;;;;;;4950660;28;20023;-78
2021/09/03 08:30:09;;;;;;;25.27;10.32;;;;;;;;;;4948708;28;20069;-79
2021/09/03 08:32:35;;;;;;;22.95;9.98;;;;;;;;;;4922747;28;20058;-79
2021/09/03 08:35:00;;;;;;;28.42;10.45;;;;;;;;;;4952097;28;20107;-78
2021/09/03 08:37:26;;;;;;;27.95;11.20;;;;;;;;;;4950288;28;20049;-78
2021/09/03 08:39:53;;;;;;;28.98;10.55;;;;;;;;;;4936858;28;20121;-79
2021/09/03 08:42:20;;;;;;;30.27;10.18;;;;;;;;;;4945485;28;20587;-79
2021/09/03 08:44:45;;;;;;;24.58;10.30;;;;;;;;;;4951850;28;20031;-79
2021/09/03 08:47:12;;;;;;;32.13;10.68;;;;;;;;;;4946026;28;20405;-78
2021/09/03 08:49:37;;;;;;;36.22;11.10;;;;;;;;;;4951994;28;20047;-78
2021/09/03 08:52:03;;;;;;;38.25;10.48;;;;;;;;;;4951451;28;20038;-79
2021/09/03 08:54:29;;;;;;;25.52;9.88;;;;;;;;;;4957538;28;20026;-79
2021/09/03 08:56:55;;;;;;;35.13;9.95;;;;;;;;;;4948555;28;20424;-78
2021/09/03 08:59:22;;;;;;;59.60;14.57;;;;;;;;;;4950551;28;20094;-79
2021/09/03 09:02:14;;;;;;;29.20;9.23;;;;;;;;;;4931768;29;20028;-79
2021/09/03 09:04:41;;;;;;;23.98;9.35;;;;;;;;;;4948182;28;20043;-77
2021/09/03 09:07:07;;;;;;;35.00;10.52;;;;;;;;;;4950862;28;20172;-78
2021/09/03 09:09:40;;;;;;;39.17;10.80;;;;;;;;;;4947614;28;20068;-77
2021/09/03 09:12:10;;;;;;;27.70;10.73;;;;;;;;;;4949699;28;20027;-78
2021/09/03 09:14:58;;;;;;;27.80;9.95;;;;;;;;;;4950564;28;20023;-78
2021/09/03 09:17:44;;;;;;;27.55;10.32;;;;;;;;;;4944596;28;20389;-78
2021/09/03 09:20:19;;;;;;;26.42;10.55;;;;;;;;;;4942406;28;20523;-78
2021/09/03 09:22:58;;;;;;;22.70;9.65;;;;;;;;;;4948536;28;20038;-78
2021/09/03 09:25:28;;;;;;;20.63;9.73;;;;;;;;;;4950866;28;20023;-78
2021/09/03 09:27:55;;;;;;;24.98;9.48;;;;;;;;;;4946950;28;20436;-78
2021/09/03 09:30:24;;;;;;;32.15;11.13;;;;;;;;;;4949539;28;20023;-79
2021/09/03 09:33:15;;;;;;;32.45;10.65;;;;;;;;;;4947850;28;20030;-78
2021/09/03 09:35:51;;;;;;;22.90;9.18;;;;;;;;;;4930264;29;20097;-78
2021/09/03 09:38:26;;;;;;;32.63;11.45;;;;;;;;;;4934547;29;20027;-79
2021/09/03 09:40:53;;;;;;;21.23;8.98;;;;;;;;;;4947062;28;20032;-78
2021/09/03 09:43:41;;;;;;;27.20;9.13;;;;;;;;;;4946126;28;20018;-78
2021/09/03 09:46:07;;;;;;;21.52;8.88;;;;;;;;;;4950760;28;20031;-78
2021/09/03 09:48:52;;;;;;;22.08;8.57;;;;;;;;;;4949936;28;20118;-78
2021/09/03 09:51:21;;;;;;;23.60;8.98;;;;;;;;;;4949604;28;20074;-78
2021/09/03 09:54:11;;;;;;;26.15;9.70;;;;;;;;;;4959207;28;20042;-78
2021/09/03 09:56:40;;;;;;;22.40;9.35;;;;;;;;;;4958805;28;20026;-78
2021/09/03 09:59:09;;;;;;;26.70;8.68;;;;;;;;;;4939446;28;20030;-78
2021/09/03 10:01:35;;;;;;;25.65;9.52;;;;;;;;;;4945767;28;20042;-78
2021/09/03 10:04:14;;;;;;;24.08;8.52;;;;;;;;;;4948633;28;20035;-78
2021/09/03 10:06:41;;;;;;;15.98;8.13;;;;;;;;;;4947252;28;20538;-78
2021/09/03 10:09:16;;;;;;;22.83;7.93;;;;;;;;;;4955035;28;20093;-78
2021/09/03 10:11:50;;;;;;;27.55;8.70;;;;;;;;;;4953676;28;20030;-79
2021/09/03 10:14:20;;;;;;;23.05;8.77;;;;;;;;;;4950470;28;20361;-78
2021/09/03 10:16:47;;;;;;;25.63;8.50;;;;;;;;;;4950286;28;20104;-78
2021/09/03 10:19:15;;;;;;;33.60;9.23;;;;;;;;;;4944698;28;20114;-78
2021/09/03 10:21:42;;;;;;;26.17;9.05;;;;;;;;;;4954721;28;20027;-78
2021/09/03 10:24:17;;;;;;;22.58;7.72;;;;;;;;;;4955605;28;20039;-78
2021/09/03 10:26:47;;;;;;;23.85;8.73;;;;;;;;;;4958095;28;20089;-78
2021/09/03 10:29:17;;;;;;;18.48;7.97;;;;;;;;;;4946154;28;20482;-78
2021/09/03 10:32:01;;;;;;;18.08;7.70;;;;;;;;;;4953078;28;20114;-78
2021/09/03 10:34:42;;;;;;;23.17;8.10;;;;;;;;;;4948779;28;20481;-79
2021/09/03 10:37:14;;;;;;;23.35;8.10;;;;;;;;;;4954574;28;20027;-78
2021/09/03 10:40:04;;;;;;;17.15;7.45;;;;;;;;;;4955727;28;20031;-78
2021/09/03 10:42:43;;;;;;;16.35;8.00;;;;;;;;;;4959533;28;20058;-78
2021/09/03 10:45:29;;;;;;;21.83;7.82;;;;;;;;;;4952348;28;20031;-77
2021/09/03 10:48:07;;;;;;;20.13;7.97;;;;;;;;;;4953679;28;20087;-78
2021/09/03 10:50:44;;;;;;;18.85;7.82;;;;;;;;;;4949147;28;20146;-78
2021/09/03 10:53:12;;;;;;;17.88;7.93;;;;;;;;;;4961422;28;20022;-78
2021/09/03 10:55:56;;;;;;;16.23;7.70;;;;;;;;;;4958362;28;20058;-77
2021/09/03 10:58:39;;;;;;;17.25;7.78;;;;;;;;;;4950189;28;20058;-79
2021/09/03 11:01:14;;;;;;;18.25;6.93;;;;;;;;;;4947941;28;20428;-78
2021/09/03 11:03:51;;;;;;;19.95;7.95;;;;;;;;;;4955559;28;20643;-78
2021/09/03 11:06:25;;;;;;;25.08;7.90;;;;;;;;;;4950877;28;20047;-78
2021/09/03 11:09:03;;;;;;;17.95;7.90;;;;;;;;;;4952416;28;20034;-78
2021/09/03 11:11:33;;;;;;;20.05;8.70;;;;;;;;;;4945507;28;20064;-78
2021/09/03 11:14:13;;;;;;;21.25;8.45;;;;;;;;;;4955316;28;20065;-78
2021/09/03 11:17:17;;;;;;;17.63;7.90;;;;;;;;;;4951813;28;20110;-78
2021/09/03 11:19:47;;;;;;;18.92;9.00;;;;;;;;;;4928713;29;20123;-78
2021/09/03 11:22:20;;;;;;;19.08;7.55;;;;;;;;;;4917007;29;20461;-78
2021/09/03 11:24:49;;;;;;;26.80;9.60;;;;;;;;;;4941992;28;20050;-77
2021/09/03 11:27:30;;;;;;;24.42;9.23;;;;;;;;;;4953320;28;20545;-78
2021/09/03 11:29:58;;;;;;;20.55;8.10;;;;;;;;;;4949902;28;20382;-79
2021/09/03 11:32:36;;;;;;;22.40;9.02;;;;;;;;;;4950577;28;20094;-78
2021/09/03 11:35:12;;;;;;;24.08;8.63;;;;;;;;;;4951827;28;20126;-79
2021/09/03 11:37:40;;;;;;;25.30;8.57;;;;;;;;;;4946592;28;20151;-79
2021/09/03 11:40:28;;;;;;;28.27;8.88;;;;;;;;;;4949189;28;20032;-78
2021/09/03 11:42:56;;;;;;;24.65;8.55;;;;;;;;;;4951046;28;20097;-78
2021/09/03 11:45:27;;;;;;;19.85;8.68;;;;;;;;;;4944453;28;20031;-78
2021/09/03 11:47:55;;;;;;;23.60;9.00;;;;;;;;;;4947605;28;20034;-78
2021/09/03 11:50:34;;;;;;;21.77;7.95;;;;;;;;;;4953811;28;20279;-78
2021/09/03 11:53:05;;;;;;;24.13;9.85;;;;;;;;;;4956414;28;20038;-78
2021/09/03 11:55:39;;;;;;;23.20;8.35;;;;;;;;;;4951268;28;20022;-78
2021/09/03 11:58:06;;;;;;;23.60;8.20;;;;;;;;;;4956097;28;20023;-78
2021/09/03 12:00:33;;;;;;;26.27;7.47;;;;;;;;;;4947671;28;20559;-79
2021/09/03 12:03:05;;;;;;;23.35;8.13;;;;;;;;;;4953657;28;20035;-78
2021/09/03 12:05:32;;;;;;;22.55;7.28;;;;;;;;;;4952581;28;20269;-77
2021/09/03 12:08:07;;;;;;;21.05;8.52;;;;;;;;;;4951135;28;20110;-78
2021/09/03 12:10:38;;;;;;;27.05;7.85;;;;;;;;;;4952872;28;20019;-78
2021/09/03 12:13:11;;;;;;;16.00;7.32;;;;;;;;;;4950695;28;20244;-79
2021/09/03 12:15:38;;;;;;;18.20;7.22;;;;;;;;;;4952445;28;20554;-78
2021/09/03 12:18:17;;;;;;;23.67;7.85;;;;;;;;;;4952927;28;20050;-78
2021/09/03 12:20:49;;;;;;;16.77;6.88;;;;;;;;;;4948638;28;20031;-78
2021/09/03 12:23:15;;;;;;;20.42;7.22;;;;;;;;;;4950245;28;20174;-77
2021/09/03 12:25:40;;;;;;;20.85;7.30;;;;;;;;;;4948797;28;20122;-78
2021/09/03 12:28:13;;;;;;;25.05;8.70;;;;;;;;;;4952962;28;20038;-78
2021/09/03 12:30:40;;;;;;;23.75;7.40;;;;;;;;;;4947185;28;20034;-78
2021/09/03 12:33:26;;;;;;;21.58;7.00;;;;;;;;;;4949275;28;20026;-78
2021/09/03 12:35:55;;;;;;;19.65;7.35;;;;;;;;;;4946260;28;20035;-78
2021/09/03 12:38:42;;;;;;;16.92;6.70;;;;;;;;;;4955029;28;20522;-78
2021/09/03 12:41:19;;;;;;;27.90;7.43;;;;;;;;;;4962271;28;20035;-78
2021/09/03 12:43:53;;;;;;;20.98;6.82;;;;;;;;;;4951246;28;20102;-78
2021/09/03 12:46:20;;;;;;;27.23;7.20;;;;;;;;;;4954139;28;20874;-78
2021/09/03 12:49:01;;;;;;;23.83;7.18;;;;;;;;;;4954609;28;20031;-78
2021/09/03 12:51:27;;;;;;;17.48;7.22;;;;;;;;;;4952270;28;20055;-78
2021/09/03 12:53:53;;;;;;;16.35;6.50;;;;;;;;;;4951558;28;20027;-78
2021/09/03 12:56:21;;;;;;;20.90;7.05;;;;;;;;;;4950338;28;20042;-78
2021/09/03 12:58:46;;;;;;;16.13;6.47;;;;;;;;;;4949320;28;20019;-78
2021/09/03 13:01:12;;;;;;;17.08;6.35;;;;;;;;;;4949340;28;20024;-79
2021/09/03 13:03:40;;;;;;;16.48;6.63;;;;;;;;;;4946730;28;20110;-78
2021/09/03 13:06:06;;;;;;;19.10;7.88;;;;;;;;;;4952057;28;20038;-78
2021/09/03 13:08:31;;;;;;;14.02;5.90;;;;;;;;;;4937343;28;20046;-78
2021/09/03 13:10:57;;;;;;;15.90;6.43;;;;;;;;;;4948032;28;20078;-78
2021/09/03 13:13:22;;;;;;;14.18;6.82;;;;;;;;;;4931864;29;20119;-78
2021/09/03 13:15:48;;;;;;;16.98;6.13;;;;;;;;;;4953691;28;20043;-78
2021/09/03 13:18:13;;;;;;;18.00;6.88;;;;;;;;;;4952136;28;20702;-80
2021/09/03 13:20:38;;;;;;;15.68;7.22;;;;;;;;;;4927924;29;20038;-79
2021/09/03 13:23:04;;;;;;;15.80;6.28;;;;;;;;;;4946197;28;20043;-78
2021/09/03 13:25:30;;;;;;;19.30;6.45;;;;;;;;;;4946879;28;20456;-78
2021/09/03 13:27:56;;;;;;;19.00;6.35;;;;;;;;;;4945587;28;20039;-77
2021/09/03 13:30:22;;;;;;;17.52;6.68;;;;;;;;;;4933114;28;20051;-78
2021/09/03 13:32:50;;;;;;;20.50;6.20;;;;;;;;;;4950499;28;20023;-78
2021/09/03 13:35:17;;;;;;;16.30;6.43;;;;;;;;;;4948719;28;20369;-78
2021/09/03 13:37:43;;;;;;;20.23;7.22;;;;;;;;;;4936408;29;20114;-78
2021/09/03 13:40:11;;;;;;;19.88;6.57;;;;;;;;;;4937362;28;20061;-80
2021/09/03 13:42:37;;;;;;;14.50;5.60;;;;;;;;;;4950060;28;20039;-78
2021/09/03 13:45:03;;;;;;;19.60;6.28;;;;;;;;;;4953957;28;20114;-78
2021/09/03 13:47:29;;;;;;;13.68;5.82;;;;;;;;;;4947806;28;20031;-78
2021/09/03 13:49:54;;;;;;;13.80;5.82;;;;;;;;;;4947937;28;20091;-77
2021/09/03 13:52:20;;;;;;;21.73;6.57;;;;;;;;;;4955880;28;20480;-78
2021/09/03 13:54:45;;;;;;;19.70;6.28;;;;;;;;;;4951959;28;20588;-78
2021/09/03 13:57:11;;;;;;;19.65;6.30;;;;;;;;;;4968783;28;20042;-78
2021/09/03 13:59:37;;;;;;;11.15;6.47;;;;;;;;;;4954671;28;20035;-78
2021/09/03 14:02:03;;;;;;;16.45;6.32;;;;;;;;;;4951762;28;20031;-79
2021/09/03 14:04:28;;;;;;;12.60;6.45;;;;;;;;;;4951309;28;20027;-78
2021/09/03 14:06:54;;;;;;;15.02;6.30;;;;;;;;;;4956408;28;20047;-78
2021/09/03 14:09:20;;;;;;;17.42;5.85;;;;;;;;;;4963374;28;20050;-78
2021/09/03 14:11:47;;;;;;;19.58;6.38;;;;;;;;;;4965393;28;20027;-79
2021/09/03 14:14:13;;;;;;;11.13;5.40;;;;;;;;;;4952669;28;20027;-78
2021/09/03 14:16:40;;;;;;;10.98;5.20;;;;;;;;;;4947695;28;20035;-78
2021/09/03 14:19:06;;;;;;;16.15;6.38;;;;;;;;;;4953319;28;21018;-78
2021/09/03 14:21:31;;;;;;;18.98;6.47;;;;;;;;;;4951839;28;20035;-79
2021/09/03 14:23:57;;;;;;;12.13;6.28;;;;;;;;;;4956917;28;20050;-79
2021/09/03 14:26:22;;;;;;;14.15;5.97;;;;;;;;;;4948953;28;20075;-79
2021/09/03 14:28:48;;;;;;;15.05;6.03;;;;;;;;;;4954811;28;20027;-78